sensor_id;sensor_type;location;lat;lon;timestamp;P1;durP1;ratioP1;P2;durP2;ratioP2
29570;SDS011;16814;52.118;11.436;2024-03-23T00:53:43;122.13;;;59.57;;
29570;SDS011;16814;52.118;11.436;2024-03-23T00:56:09;285.33;;;134.20;;
29570;SDS011;16814;52.118;11.436;2024-03-23T00:58:35;292.65;;;146.85;;
29570;SDS011;16814;52.118;11.436;2024-03-23T01:01:00;225.25;;;122.65;;
29570;SDS011;16814;52.118;11.436;2024-03-23T01:03:27;77.70;;;45.30;;
29570;SDS011;16814;52.118;11.436;2024-03-23T01:05:52;48.63;;;33.10;;
29570;SDS011;16814;52.118;11.436;2024-03-23T01:08:19;35.58;;;24.73;;
29570;SDS011;16814;52.118;11.436;2024-03-23T01:10:53;25.67;;;14.90;;
29570;SDS011;16814;52.118;11.436;2024-03-23T01:13:22;25.13;;;13.27;;
29570;SDS011;16814;52.118;11.436;2024-03-23T01:15:49;17.45;;;9.35;;
29570;SDS011;16814;52.118;11.436;2024-03-23T01:18:16;19.33;;;9.30;;
29570;SDS011;16814;52.118;11.436;2024-03-23T01:20:42;21.88;;;9.77;;
29570;SDS011;16814;52.118;11.436;2024-03-23T01:23:08;20.77;;;9.38;;
29570;SDS011;16814;52.118;11.436;2024-03-23T01:25:34;23.33;;;10.20;;
29570;SDS011;16814;52.118;11.436;2024-03-23T01:27:59;18.92;;;9.32;;
29570;SDS011;16814;52.118;11.436;2024-03-23T01:30:24;24.63;;;9.35;;
29570;SDS011;16814;52.118;11.436;2024-03-23T01:32:50;22.63;;;9.63;;
29570;SDS011;16814;52.118;11.436;2024-03-23T01:35:15;18.77;;;8.87;;
29570;SDS011;16814;52.118;11.436;2024-03-23T01:37:41;26.65;;;9.38;;
29570;SDS011;16814;52.118;11.436;2024-03-23T01:40:07;22.97;;;9.07;;
29570;SDS011;16814;52.118;11.436;2024-03-23T01:42:33;22.52;;;8.93;;
29570;SDS011;16814;52.118;11.436;2024-03-23T01:44:58;23.97;;;9.10;;
29570;SDS011;16814;52.118;11.436;2024-03-23T01:47:24;22.65;;;9.13;;
29570;SDS011;16814;52.118;11.436;2024-03-23T01:49:49;23.17;;;8.77;;
29570;SDS011;16814;52.118;11.436;2024-03-23T01:52:16;22.37;;;8.10;;
29570;SDS011;16814;52.118;11.436;2024-03-23T01:54:42;26.13;;;8.13;;
29570;SDS011;16814;52.118;11.436;2024-03-23T01:57:08;22.67;;;8.38;;
29570;SDS011;16814;52.118;11.436;2024-03-23T01:59:34;18.52;;;7.63;;
29570;SDS011;16814;52.118;11.436;2024-03-23T02:02:00;19.92;;;7.05;;
29570;SDS011;16814;52.118;11.436;2024-03-23T02:04:26;19.57;;;7.23;;
29570;SDS011;16814;52.118;11.436;2024-03-23T02:06:51;21.20;;;7.07;;
29570;SDS011;16814;52.118;11.436;2024-03-23T02:09:17;23.70;;;6.80;;
29570;SDS011;16814;52.118;11.436;2024-03-23T02:11:43;17.85;;;6.22;;
29570;SDS011;16814;52.118;11.436;2024-03-23T02:14:08;19.10;;;6.00;;
29570;SDS011;16814;52.118;11.436;2024-03-23T02:16:34;23.50;;;5.63;;
29570;SDS011;16814;52.118;11.436;2024-03-23T02:18:59;18.50;;;5.43;;
29570;SDS011;16814;52.118;11.436;2024-03-23T02:21:25;16.57;;;5.20;;
29570;SDS011;16814;52.118;11.436;2024-03-23T02:23:52;20.48;;;5.70;;
29570;SDS011;16814;52.118;11.436;2024-03-23T02:26:18;21.17;;;5.18;;
29570;SDS011;16814;52.118;11.436;2024-03-23T02:28:43;16.80;;;5.03;;
29570;SDS011;16814;52.118;11.436;2024-03-23T02:31:09;18.80;;;5.63;;
29570;SDS011;16814;52.118;11.436;2024-03-23T02:33:35;18.13;;;5.80;;
29570;SDS011;16814;52.118;11.436;2024-03-23T02:36:03;18.10;;;5.97;;
29570;SDS011;16814;52.118;11.436;2024-03-23T02:38:29;18.70;;;5.55;;
29570;SDS011;16814;52.118;11.436;2024-03-23T02:40:54;15.20;;;5.93;;
29570;SDS011;16814;52.118;11.436;2024-03-23T02:43:20;18.77;;;5.20;;
29570;SDS011;16814;52.118;11.436;2024-03-23T02:45:45;15.77;;;5.70;;
29570;SDS011;16814;52.118;11.436;2024-03-23T02:48:11;14.90;;;4.90;;
29570;SDS011;16814;52.118;11.436;2024-03-23T02:50:36;18.27;;;4.70;;
29570;SDS011;16814;52.118;11.436;2024-03-23T02:53:02;16.55;;;5.35;;
29570;SDS011;16814;52.118;11.436;2024-03-23T02:55:27;16.43;;;5.07;;
29570;SDS011;16814;52.118;11.436;2024-03-23T02:57:53;12.83;;;4.33;;
29570;SDS011;16814;52.118;11.436;2024-03-23T03:00:18;14.73;;;4.32;;
29570;SDS011;16814;52.118;11.436;2024-03-23T03:02:44;18.57;;;4.23;;
29570;SDS011;16814;52.118;11.436;2024-03-23T03:05:09;15.83;;;4.23;;
29570;SDS011;16814;52.118;11.436;2024-03-23T03:07:36;20.15;;;4.10;;
29570;SDS011;16814;52.118;11.436;2024-03-23T03:10:04;14.07;;;3.60;;
29570;SDS011;16814;52.118;11.436;2024-03-23T03:12:31;12.32;;;3.58;;
29570;SDS011;16814;52.118;11.436;2024-03-23T03:14:57;14.35;;;3.67;;
29570;SDS011;16814;52.118;11.436;2024-03-23T03:17:22;11.33;;;3.13;;
29570;SDS011;16814;52.118;11.436;2024-03-23T03:19:48;11.18;;;3.10;;
29570;SDS011;16814;52.118;11.436;2024-03-23T03:22:14;12.57;;;3.40;;
29570;SDS011;16814;52.118;11.436;2024-03-23T03:24:39;17.02;;;3.88;;
29570;SDS011;16814;52.118;11.436;2024-03-23T03:27:05;15.40;;;3.73;;
29570;SDS011;16814;52.118;11.436;2024-03-23T03:29:31;21.57;;;4.07;;
29570;SDS011;16814;52.118;11.436;2024-03-23T03:32:00;14.40;;;3.42;;
29570;SDS011;16814;52.118;11.436;2024-03-23T03:34:27;13.77;;;3.65;;
29570;SDS011;16814;52.118;11.436;2024-03-23T03:36:52;17.92;;;3.70;;
29570;SDS011;16814;52.118;11.436;2024-03-23T03:39:18;13.30;;;3.77;;
29570;SDS011;16814;52.118;11.436;2024-03-23T03:41:43;15.10;;;3.77;;
29570;SDS011;16814;52.118;11.436;2024-03-23T03:44:09;16.35;;;4.18;;
29570;SDS011;16814;52.118;11.436;2024-03-23T03:46:34;16.25;;;4.10;;
29570;SDS011;16814;52.118;11.436;2024-03-23T03:49:00;15.33;;;4.17;;
29570;SDS011;16814;52.118;11.436;2024-03-23T03:51:25;12.87;;;4.37;;
29570;SDS011;16814;52.118;11.436;2024-03-23T03:53:51;18.52;;;4.15;;
29570;SDS011;16814;52.118;11.436;2024-03-23T03:56:16;16.47;;;4.20;;
29570;SDS011;16814;52.118;11.436;2024-03-23T03:58:42;16.67;;;4.27;;
29570;SDS011;16814;52.118;11.436;2024-03-23T04:01:07;14.75;;;4.25;;
29570;SDS011;16814;52.118;11.436;2024-03-23T04:03:33;20.97;;;4.43;;
29570;SDS011;16814;52.118;11.436;2024-03-23T04:05:59;19.63;;;4.07;;
29570;SDS011;16814;52.118;11.436;2024-03-23T04:08:24;17.50;;;3.90;;
29570;SDS011;16814;52.118;11.436;2024-03-23T04:10:50;16.00;;;3.92;;
29570;SDS011;16814;52.118;11.436;2024-03-23T04:13:15;16.97;;;4.30;;
29570;SDS011;16814;52.118;11.436;2024-03-23T04:15:41;19.95;;;4.50;;
29570;SDS011;16814;52.118;11.436;2024-03-23T04:18:07;13.75;;;4.20;;
29570;SDS011;16814;52.118;11.436;2024-03-23T04:20:33;15.52;;;3.97;;
29570;SDS011;16814;52.118;11.436;2024-03-23T04:22:59;19.80;;;3.93;;
29570;SDS011;16814;52.118;11.436;2024-03-23T04:25:24;14.50;;;3.45;;
29570;SDS011;16814;52.118;11.436;2024-03-23T04:27:50;15.73;;;4.20;;
29570;SDS011;16814;52.118;11.436;2024-03-23T04:30:16;17.70;;;3.43;;
29570;SDS011;16814;52.118;11.436;2024-03-23T04:32:42;19.42;;;3.83;;
29570;SDS011;16814;52.118;11.436;2024-03-23T04:35:08;16.67;;;3.38;;
29570;SDS011;16814;52.118;11.436;2024-03-23T04:37:38;19.30;;;3.37;;
29570;SDS011;16814;52.118;11.436;2024-03-23T04:40:06;22.17;;;3.10;;
29570;SDS011;16814;52.118;11.436;2024-03-23T04:42:32;11.38;;;3.05;;
29570;SDS011;16814;52.118;11.436;2024-03-23T04:44:58;14.50;;;3.60;;
29570;SDS011;16814;52.118;11.436;2024-03-23T04:47:24;18.27;;;3.40;;
29570;SDS011;16814;52.118;11.436;2024-03-23T04:49:49;15.63;;;3.10;;
29570;SDS011;16814;52.118;11.436;2024-03-23T04:52:15;17.25;;;3.17;;
29570;SDS011;16814;52.118;11.436;2024-03-23T04:54:42;12.65;;;3.10;;
29570;SDS011;16814;52.118;11.436;2024-03-23T04:57:08;17.63;;;3.47;;
29570;SDS011;16814;52.118;11.436;2024-03-23T04:59:33;17.58;;;3.30;;
29570;SDS011;16814;52.118;11.436;2024-03-23T05:01:59;14.50;;;3.33;;
29570;SDS011;16814;52.118;11.436;2024-03-23T05:04:25;14.23;;;2.92;;
29570;SDS011;16814;52.118;11.436;2024-03-23T05:06:51;20.30;;;3.23;;
29570;SDS011;16814;52.118;11.436;2024-03-23T05:09:16;17.40;;;3.47;;
29570;SDS011;16814;52.118;11.436;2024-03-23T05:11:42;21.27;;;3.70;;
29570;SDS011;16814;52.118;11.436;2024-03-23T05:14:07;22.20;;;3.93;;
29570;SDS011;16814;52.118;11.436;2024-03-23T05:16:33;19.08;;;3.63;;
29570;SDS011;16814;52.118;11.436;2024-03-23T05:18:59;15.50;;;3.35;;
29570;SDS011;16814;52.118;11.436;2024-03-23T05:21:24;19.03;;;4.23;;
29570;SDS011;16814;52.118;11.436;2024-03-23T05:23:50;15.67;;;4.10;;
29570;SDS011;16814;52.118;11.436;2024-03-23T05:26:16;13.63;;;3.45;;
29570;SDS011;16814;52.118;11.436;2024-03-23T05:28:42;17.85;;;4.13;;
29570;SDS011;16814;52.118;11.436;2024-03-23T05:31:08;19.10;;;3.63;;
29570;SDS011;16814;52.118;11.436;2024-03-23T05:33:35;23.27;;;3.88;;
29570;SDS011;16814;52.118;11.436;2024-03-23T05:36:03;17.55;;;3.78;;
29570;SDS011;16814;52.118;11.436;2024-03-23T05:38:29;19.60;;;3.30;;
29570;SDS011;16814;52.118;11.436;2024-03-23T05:40:54;20.63;;;3.77;;
29570;SDS011;16814;52.118;11.436;2024-03-23T05:43:21;20.70;;;3.67;;
29570;SDS011;16814;52.118;11.436;2024-03-23T05:45:56;20.20;;;3.55;;
29570;SDS011;16814;52.118;11.436;2024-03-23T05:48:23;18.73;;;3.73;;
29570;SDS011;16814;52.118;11.436;2024-03-23T05:50:49;17.30;;;3.25;;
29570;SDS011;16814;52.118;11.436;2024-03-23T05:53:15;17.33;;;3.20;;
29570;SDS011;16814;52.118;11.436;2024-03-23T05:55:41;18.55;;;3.63;;
29570;SDS011;16814;52.118;11.436;2024-03-23T05:58:07;15.10;;;3.17;;
29570;SDS011;16814;52.118;11.436;2024-03-23T06:00:33;18.27;;;3.20;;
29570;SDS011;16814;52.118;11.436;2024-03-23T06:02:58;15.90;;;3.40;;
29570;SDS011;16814;52.118;11.436;2024-03-23T06:05:24;19.27;;;3.80;;
29570;SDS011;16814;52.118;11.436;2024-03-23T06:07:49;17.58;;;3.95;;
29570;SDS011;16814;52.118;11.436;2024-03-23T06:10:15;15.60;;;3.37;;
29570;SDS011;16814;52.118;11.436;2024-03-23T06:12:41;24.70;;;4.25;;
29570;SDS011;16814;52.118;11.436;2024-03-23T06:15:07;19.60;;;3.67;;
29570;SDS011;16814;52.118;11.436;2024-03-23T06:17:35;23.48;;;4.22;;
29570;SDS011;16814;52.118;11.436;2024-03-23T06:20:01;16.92;;;3.45;;
29570;SDS011;16814;52.118;11.436;2024-03-23T06:22:27;15.93;;;3.70;;
29570;SDS011;16814;52.118;11.436;2024-03-23T06:24:53;16.27;;;3.30;;
29570;SDS011;16814;52.118;11.436;2024-03-23T06:27:18;24.10;;;3.70;;
29570;SDS011;16814;52.118;11.436;2024-03-23T06:29:44;26.13;;;4.13;;
29570;SDS011;16814;52.118;11.436;2024-03-23T06:32:09;18.50;;;3.67;;
29570;SDS011;16814;52.118;11.436;2024-03-23T06:34:35;18.43;;;3.43;;
29570;SDS011;16814;52.118;11.436;2024-03-23T06:37:00;14.80;;;3.35;;
29570;SDS011;16814;52.118;11.436;2024-03-23T06:39:26;16.90;;;3.30;;
29570;SDS011;16814;52.118;11.436;2024-03-23T06:41:52;14.93;;;3.40;;
29570;SDS011;16814;52.118;11.436;2024-03-23T06:44:18;15.88;;;3.75;;
29570;SDS011;16814;52.118;11.436;2024-03-23T06:46:44;17.60;;;3.42;;
29570;SDS011;16814;52.118;11.436;2024-03-23T06:49:10;15.67;;;3.50;;
29570;SDS011;16814;52.118;11.436;2024-03-23T06:51:36;12.55;;;3.17;;
29570;SDS011;16814;52.118;11.436;2024-03-23T06:54:03;13.43;;;3.53;;
29570;SDS011;16814;52.118;11.436;2024-03-23T06:56:30;18.48;;;3.28;;
29570;SDS011;16814;52.118;11.436;2024-03-23T06:58:56;17.13;;;3.80;;
29570;SDS011;16814;52.118;11.436;2024-03-23T07:01:22;12.67;;;3.10;;
29570;SDS011;16814;52.118;11.436;2024-03-23T07:03:48;14.80;;;3.13;;
29570;SDS011;16814;52.118;11.436;2024-03-23T07:06:13;16.93;;;4.50;;
29570;SDS011;16814;52.118;11.436;2024-03-23T07:08:39;17.42;;;5.25;;
29570;SDS011;16814;52.118;11.436;2024-03-23T07:11:04;23.20;;;6.43;;
29570;SDS011;16814;52.118;11.436;2024-03-23T07:13:30;23.20;;;8.67;;
29570;SDS011;16814;52.118;11.436;2024-03-23T07:15:56;20.00;;;6.00;;
29570;SDS011;16814;52.118;11.436;2024-03-23T07:18:22;25.67;;;9.88;;
29570;SDS011;16814;52.118;11.436;2024-03-23T07:20:57;22.27;;;6.70;;
29570;SDS011;16814;52.118;11.436;2024-03-23T07:23:23;14.70;;;3.75;;
29570;SDS011;16814;52.118;11.436;2024-03-23T07:25:56;16.27;;;4.07;;
29570;SDS011;16814;52.118;11.436;2024-03-23T07:28:22;19.23;;;7.05;;
29570;SDS011;16814;52.118;11.436;2024-03-23T07:30:47;21.53;;;10.77;;
29570;SDS011;16814;52.118;11.436;2024-03-23T07:33:13;25.20;;;12.57;;
29570;SDS011;16814;52.118;11.436;2024-03-23T07:35:39;26.90;;;16.10;;
29570;SDS011;16814;52.118;11.436;2024-03-23T07:38:04;34.30;;;19.43;;
29570;SDS011;16814;52.118;11.436;2024-03-23T07:40:30;31.40;;;18.25;;
29570;SDS011;16814;52.118;11.436;2024-03-23T07:42:56;26.33;;;14.32;;
29570;SDS011;16814;52.118;11.436;2024-03-23T07:45:21;24.55;;;12.30;;
29570;SDS011;16814;52.118;11.436;2024-03-23T07:47:47;20.90;;;9.23;;
29570;SDS011;16814;52.118;11.436;2024-03-23T07:50:12;19.05;;;7.13;;
29570;SDS011;16814;52.118;11.436;2024-03-23T07:52:38;12.53;;;4.23;;
29570;SDS011;16814;52.118;11.436;2024-03-23T07:55:03;16.03;;;5.10;;
29570;SDS011;16814;52.118;11.436;2024-03-23T07:57:29;16.20;;;4.47;;
29570;SDS011;16814;52.118;11.436;2024-03-23T07:59:55;15.27;;;3.97;;
29570;SDS011;16814;52.118;11.436;2024-03-23T08:02:21;15.95;;;4.70;;
29570;SDS011;16814;52.118;11.436;2024-03-23T08:04:49;20.90;;;5.00;;
29570;SDS011;16814;52.118;11.436;2024-03-23T08:07:15;21.33;;;4.88;;
29570;SDS011;16814;52.118;11.436;2024-03-23T08:09:40;21.53;;;4.70;;
29570;SDS011;16814;52.118;11.436;2024-03-23T08:12:06;21.80;;;4.97;;
29570;SDS011;16814;52.118;11.436;2024-03-23T08:14:32;18.93;;;5.30;;
29570;SDS011;16814;52.118;11.436;2024-03-23T08:16:57;19.55;;;5.15;;
29570;SDS011;16814;52.118;11.436;2024-03-23T08:19:23;19.33;;;5.40;;
29570;SDS011;16814;52.118;11.436;2024-03-23T08:21:48;19.37;;;5.37;;
29570;SDS011;16814;52.118;11.436;2024-03-23T08:24:15;22.23;;;5.90;;
29570;SDS011;16814;52.118;11.436;2024-03-23T08:26:41;25.73;;;7.50;;
29570;SDS011;16814;52.118;11.436;2024-03-23T08:29:06;77.18;;;44.30;;
29570;SDS011;16814;52.118;11.436;2024-03-23T08:31:32;70.80;;;39.43;;
29570;SDS011;16814;52.118;11.436;2024-03-23T08:33:57;32.92;;;12.13;;
29570;SDS011;16814;52.118;11.436;2024-03-23T08:36:23;49.70;;;24.87;;
29570;SDS011;16814;52.118;11.436;2024-03-23T08:38:49;22.60;;;9.98;;
29570;SDS011;16814;52.118;11.436;2024-03-23T08:41:15;21.55;;;6.03;;
29570;SDS011;16814;52.118;11.436;2024-03-23T08:43:41;26.47;;;9.33;;
29570;SDS011;16814;52.118;11.436;2024-03-23T08:46:08;35.67;;;16.50;;
29570;SDS011;16814;52.118;11.436;2024-03-23T08:51:11;21.73;;;8.80;;
29570;SDS011;16814;52.118;11.436;2024-03-23T08:53:40;22.75;;;6.50;;
29570;SDS011;16814;52.118;11.436;2024-03-23T08:56:06;15.97;;;4.40;;
29570;SDS011;16814;52.118;11.436;2024-03-23T08:58:32;17.10;;;3.70;;
29570;SDS011;16814;52.118;11.436;2024-03-23T09:01:03;19.95;;;4.30;;
29570;SDS011;16814;52.118;11.436;2024-03-23T09:03:30;15.82;;;3.72;;
29570;SDS011;16814;52.118;11.436;2024-03-23T09:05:56;16.83;;;4.15;;
29570;SDS011;16814;52.118;11.436;2024-03-23T09:08:23;15.73;;;3.65;;
29570;SDS011;16814;52.118;11.436;2024-03-23T09:10:48;13.70;;;3.53;;
29570;SDS011;16814;52.118;11.436;2024-03-23T09:13:14;18.20;;;3.90;;
29570;SDS011;16814;52.118;11.436;2024-03-23T09:15:48;16.00;;;3.57;;
29570;SDS011;16814;52.118;11.436;2024-03-23T09:18:14;13.47;;;3.23;;
29570;SDS011;16814;52.118;11.436;2024-03-23T09:20:40;14.05;;;3.25;;
29570;SDS011;16814;52.118;11.436;2024-03-23T09:23:05;12.67;;;3.00;;
29570;SDS011;16814;52.118;11.436;2024-03-23T09:25:31;13.30;;;3.28;;
29570;SDS011;16814;52.118;11.436;2024-03-23T09:27:57;14.50;;;2.80;;
29570;SDS011;16814;52.118;11.436;2024-03-23T09:30:23;11.77;;;2.92;;
29570;SDS011;16814;52.118;11.436;2024-03-23T09:32:49;12.93;;;3.07;;
29570;SDS011;16814;52.118;11.436;2024-03-23T09:35:14;12.07;;;2.90;;
29570;SDS011;16814;52.118;11.436;2024-03-23T09:37:40;11.98;;;2.97;;
29570;SDS011;16814;52.118;11.436;2024-03-23T09:40:08;13.67;;;3.20;;
29570;SDS011;16814;52.118;11.436;2024-03-23T09:42:36;14.27;;;3.22;;
29570;SDS011;16814;52.118;11.436;2024-03-23T09:45:02;13.00;;;3.03;;
29570;SDS011;16814;52.118;11.436;2024-03-23T09:47:34;14.02;;;2.90;;
29570;SDS011;16814;52.118;11.436;2024-03-23T09:50:00;12.95;;;2.97;;
29570;SDS011;16814;52.118;11.436;2024-03-23T09:52:26;16.33;;;2.92;;
29570;SDS011;16814;52.118;11.436;2024-03-23T09:54:53;19.02;;;3.40;;
29570;SDS011;16814;52.118;11.436;2024-03-23T09:57:18;17.10;;;3.47;;
29570;SDS011;16814;52.118;11.436;2024-03-23T09:59:44;15.50;;;3.00;;
29570;SDS011;16814;52.118;11.436;2024-03-23T10:02:09;13.05;;;2.90;;
29570;SDS011;16814;52.118;11.436;2024-03-23T10:04:40;14.10;;;2.90;;
29570;SDS011;16814;52.118;11.436;2024-03-23T10:07:10;16.77;;;3.28;;
29570;SDS011;16814;52.118;11.436;2024-03-23T10:09:40;14.02;;;2.75;;
29570;SDS011;16814;52.118;11.436;2024-03-23T10:12:09;20.58;;;3.28;;
29570;SDS011;16814;52.118;11.436;2024-03-23T10:14:37;14.75;;;2.83;;
29570;SDS011;16814;52.118;11.436;2024-03-23T10:17:12;13.27;;;2.77;;
29570;SDS011;16814;52.118;11.436;2024-03-23T10:22:14;19.20;;;3.40;;
29570;SDS011;16814;52.118;11.436;2024-03-23T10:24:46;15.98;;;3.33;;
29570;SDS011;16814;52.118;11.436;2024-03-23T10:27:16;17.90;;;3.75;;
29570;SDS011;16814;52.118;11.436;2024-03-23T10:29:52;22.33;;;4.45;;
29570;SDS011;16814;52.118;11.436;2024-03-23T10:32:33;18.95;;;5.68;;
29570;SDS011;16814;52.118;11.436;2024-03-23T10:35:17;26.27;;;7.33;;
29570;SDS011;16814;52.118;11.436;2024-03-23T10:37:44;26.67;;;7.68;;
29570;SDS011;16814;52.118;11.436;2024-03-23T10:40:12;20.30;;;6.80;;
29570;SDS011;16814;52.118;11.436;2024-03-23T10:42:38;16.10;;;3.53;;
29570;SDS011;16814;52.118;11.436;2024-03-23T10:45:05;10.93;;;3.38;;
29570;SDS011;16814;52.118;11.436;2024-03-23T10:47:31;11.20;;;3.20;;
29570;SDS011;16814;52.118;11.436;2024-03-23T10:49:59;10.63;;;3.33;;
29570;SDS011;16814;52.118;11.436;2024-03-23T10:52:24;11.10;;;3.63;;
29570;SDS011;16814;52.118;11.436;2024-03-23T10:54:53;16.10;;;4.00;;
29570;SDS011;16814;52.118;11.436;2024-03-23T10:57:20;9.63;;;3.65;;
29570;SDS011;16814;52.118;11.436;2024-03-23T10:59:50;9.52;;;3.85;;
29570;SDS011;16814;52.118;11.436;2024-03-23T11:02:20;11.60;;;4.15;;
29570;SDS011;16814;52.118;11.436;2024-03-23T11:04:46;14.88;;;4.07;;
29570;SDS011;16814;52.118;11.436;2024-03-23T11:09:49;9.82;;;3.50;;
29570;SDS011;16814;52.118;11.436;2024-03-23T11:14:52;14.98;;;3.65;;
29570;SDS011;16814;52.118;11.436;2024-03-23T11:17:23;15.60;;;3.50;;
29570;SDS011;16814;52.118;11.436;2024-03-23T11:19:56;16.52;;;3.67;;
29570;SDS011;16814;52.118;11.436;2024-03-23T11:22:43;19.23;;;4.57;;
29570;SDS011;16814;52.118;11.436;2024-03-23T11:27:46;16.25;;;4.30;;
29570;SDS011;16814;52.118;11.436;2024-03-23T11:30:19;15.73;;;5.03;;
29570;SDS011;16814;52.118;11.436;2024-03-23T11:32:49;19.30;;;5.43;;
29570;SDS011;16814;52.118;11.436;2024-03-23T11:35:31;19.83;;;6.10;;
29570;SDS011;16814;52.118;11.436;2024-03-23T11:38:05;28.40;;;9.38;;
29570;SDS011;16814;52.118;11.436;2024-03-23T11:40:38;15.63;;;5.75;;
29570;SDS011;16814;52.118;11.436;2024-03-23T11:43:06;42.38;;;17.25;;
29570;SDS011;16814;52.118;11.436;2024-03-23T11:45:52;28.73;;;11.73;;
29570;SDS011;16814;52.118;11.436;2024-03-23T11:48:19;34.60;;;16.70;;
29570;SDS011;16814;52.118;11.436;2024-03-23T11:50:47;23.88;;;8.15;;
29570;SDS011;16814;52.118;11.436;2024-03-23T11:53:20;12.45;;;4.30;;
29570;SDS011;16814;52.118;11.436;2024-03-23T11:55:52;15.75;;;4.97;;
29570;SDS011;16814;52.118;11.436;2024-03-23T11:58:20;17.25;;;6.38;;
29570;SDS011;16814;52.118;11.436;2024-03-23T12:00:55;32.75;;;16.00;;
29570;SDS011;16814;52.118;11.436;2024-03-23T12:03:22;40.55;;;23.63;;
29570;SDS011;16814;52.118;11.436;2024-03-23T12:05:51;23.30;;;10.35;;
29570;SDS011;16814;52.118;11.436;2024-03-23T12:08:24;35.97;;;20.88;;
29570;SDS011;16814;52.118;11.436;2024-03-23T12:11:06;49.95;;;27.85;;
29570;SDS011;16814;52.118;11.436;2024-03-23T12:13:43;51.67;;;24.73;;
29570;SDS011;16814;52.118;11.436;2024-03-23T12:18:46;26.98;;;10.85;;
29570;SDS011;16814;52.118;11.436;2024-03-23T12:21:14;23.75;;;9.18;;
29570;SDS011;16814;52.118;11.436;2024-03-23T12:23:40;22.38;;;8.05;;
29570;SDS011;16814;52.118;11.436;2024-03-23T12:26:06;19.55;;;6.57;;
29570;SDS011;16814;52.118;11.436;2024-03-23T12:28:32;18.30;;;6.85;;
29570;SDS011;16814;52.118;11.436;2024-03-23T12:30:58;16.00;;;6.30;;
29570;SDS011;16814;52.118;11.436;2024-03-23T12:33:24;19.20;;;6.20;;
29570;SDS011;16814;52.118;11.436;2024-03-23T12:35:49;17.17;;;6.25;;
29570;SDS011;16814;52.118;11.436;2024-03-23T12:38:15;16.30;;;6.15;;
29570;SDS011;16814;52.118;11.436;2024-03-23T12:40:42;23.42;;;9.57;;
29570;SDS011;16814;52.118;11.436;2024-03-23T12:43:12;23.17;;;8.65;;
29570;SDS011;16814;52.118;11.436;2024-03-23T12:45:38;19.42;;;6.18;;
29570;SDS011;16814;52.118;11.436;2024-03-23T12:48:03;22.20;;;7.53;;
29570;SDS011;16814;52.118;11.436;2024-03-23T12:50:29;11.35;;;5.15;;
29570;SDS011;16814;52.118;11.436;2024-03-23T12:52:55;18.23;;;6.87;;
29570;SDS011;16814;52.118;11.436;2024-03-23T12:55:20;13.77;;;3.93;;
29570;SDS011;16814;52.118;11.436;2024-03-23T12:57:46;16.73;;;5.05;;
29570;SDS011;16814;52.118;11.436;2024-03-23T13:00:12;10.90;;;3.80;;
29570;SDS011;16814;52.118;11.436;2024-03-23T13:02:38;14.98;;;7.65;;
29570;SDS011;16814;52.118;11.436;2024-03-23T13:05:04;16.27;;;6.23;;
29570;SDS011;16814;52.118;11.436;2024-03-23T13:07:30;15.43;;;5.37;;
29570;SDS011;16814;52.118;11.436;2024-03-23T13:09:56;13.48;;;5.80;;
29570;SDS011;16814;52.118;11.436;2024-03-23T13:12:22;8.50;;;3.70;;
29570;SDS011;16814;52.118;11.436;2024-03-23T13:14:48;11.27;;;3.10;;
29570;SDS011;16814;52.118;11.436;2024-03-23T13:17:13;7.53;;;2.63;;
29570;SDS011;16814;52.118;11.436;2024-03-23T13:19:39;5.72;;;3.00;;
29570;SDS011;16814;52.118;11.436;2024-03-23T13:22:05;6.15;;;1.95;;
29570;SDS011;16814;52.118;11.436;2024-03-23T13:24:31;5.07;;;1.57;;
29570;SDS011;16814;52.118;11.436;2024-03-23T13:26:57;7.03;;;2.40;;
29570;SDS011;16814;52.118;11.436;2024-03-23T13:29:23;6.60;;;2.30;;
29570;SDS011;16814;52.118;11.436;2024-03-23T13:31:50;8.87;;;2.10;;
29570;SDS011;16814;52.118;11.436;2024-03-23T13:34:17;5.53;;;2.13;;
29570;SDS011;16814;52.118;11.436;2024-03-23T13:36:46;11.13;;;2.40;;
29570;SDS011;16814;52.118;11.436;2024-03-23T13:39:12;7.97;;;2.22;;
29570;SDS011;16814;52.118;11.436;2024-03-23T13:41:42;6.67;;;2.40;;
29570;SDS011;16814;52.118;11.436;2024-03-23T13:44:12;7.45;;;2.13;;
29570;SDS011;16814;52.118;11.436;2024-03-23T13:46:38;7.75;;;2.80;;
29570;SDS011;16814;52.118;11.436;2024-03-23T13:49:05;6.07;;;2.33;;
29570;SDS011;16814;52.118;11.436;2024-03-23T13:51:31;5.72;;;1.90;;
29570;SDS011;16814;52.118;11.436;2024-03-23T13:53:57;3.03;;;1.60;;
29570;SDS011;16814;52.118;11.436;2024-03-23T13:56:25;7.90;;;1.67;;
29570;SDS011;16814;52.118;11.436;2024-03-23T13:58:56;4.07;;;1.48;;
29570;SDS011;16814;52.118;11.436;2024-03-23T14:01:23;3.97;;;1.50;;
29570;SDS011;16814;52.118;11.436;2024-03-23T14:03:49;5.18;;;1.52;;
29570;SDS011;16814;52.118;11.436;2024-03-23T14:06:15;5.45;;;1.98;;
29570;SDS011;16814;52.118;11.436;2024-03-23T14:08:40;6.93;;;3.63;;
29570;SDS011;16814;52.118;11.436;2024-03-23T14:11:06;4.53;;;1.92;;
29570;SDS011;16814;52.118;11.436;2024-03-23T14:13:33;8.20;;;3.58;;
29570;SDS011;16814;52.118;11.436;2024-03-23T14:16:00;8.43;;;4.15;;
29570;SDS011;16814;52.118;11.436;2024-03-23T14:18:26;4.55;;;2.78;;
29570;SDS011;16814;52.118;11.436;2024-03-23T14:20:52;8.98;;;4.15;;
29570;SDS011;16814;52.118;11.436;2024-03-23T14:23:23;8.67;;;4.30;;
29570;SDS011;16814;52.118;11.436;2024-03-23T14:25:49;12.20;;;6.07;;
29570;SDS011;16814;52.118;11.436;2024-03-23T14:28:17;9.10;;;4.15;;
29570;SDS011;16814;52.118;11.436;2024-03-23T14:30:42;6.77;;;4.30;;
29570;SDS011;16814;52.118;11.436;2024-03-23T14:33:08;10.77;;;4.65;;
29570;SDS011;16814;52.118;11.436;2024-03-23T14:35:34;10.07;;;4.28;;
29570;SDS011;16814;52.118;11.436;2024-03-23T14:38:00;10.87;;;4.13;;
29570;SDS011;16814;52.118;11.436;2024-03-23T14:40:25;6.32;;;2.80;;
29570;SDS011;16814;52.118;11.436;2024-03-23T14:42:54;8.93;;;2.70;;
29570;SDS011;16814;52.118;11.436;2024-03-23T14:45:20;8.52;;;2.40;;
29570;SDS011;16814;52.118;11.436;2024-03-23T14:47:47;6.38;;;2.53;;
29570;SDS011;16814;52.118;11.436;2024-03-23T14:50:13;6.77;;;2.53;;
29570;SDS011;16814;52.118;11.436;2024-03-23T14:52:41;7.13;;;2.15;;
29570;SDS011;16814;52.118;11.436;2024-03-23T14:55:12;5.25;;;1.98;;
29570;SDS011;16814;52.118;11.436;2024-03-23T14:57:39;4.75;;;2.30;;
29570;SDS011;16814;52.118;11.436;2024-03-23T15:00:08;4.72;;;2.10;;
29570;SDS011;16814;52.118;11.436;2024-03-23T15:02:38;3.88;;;1.83;;
29570;SDS011;16814;52.118;11.436;2024-03-23T15:05:04;5.17;;;2.00;;
29570;SDS011;16814;52.118;11.436;2024-03-23T15:07:30;5.43;;;2.70;;
29570;SDS011;16814;52.118;11.436;2024-03-23T15:09:56;7.13;;;2.80;;
29570;SDS011;16814;52.118;11.436;2024-03-23T15:12:21;7.90;;;3.00;;
29570;SDS011;16814;52.118;11.436;2024-03-23T15:14:47;5.53;;;2.93;;
29570;SDS011;16814;52.118;11.436;2024-03-23T15:17:13;4.90;;;2.90;;
29570;SDS011;16814;52.118;11.436;2024-03-23T15:19:38;6.43;;;3.20;;
29570;SDS011;16814;52.118;11.436;2024-03-23T15:22:05;5.13;;;3.20;;
29570;SDS011;16814;52.118;11.436;2024-03-23T15:24:30;6.82;;;3.25;;
29570;SDS011;16814;52.118;11.436;2024-03-23T15:26:56;6.57;;;3.25;;